Time;durP1;ratioP1;P1;durP2;ratioP2;P2;SDS_P1;SDS_P2;PMS_P1;PMS_P2;Temp;Humidity;BMP_temperature;BMP_pressure;BME280_temperature;BME280_humidity;BME280_pressure;Samples;Min_cycle;Max_cycle;Signal;HPM_P1;HPM_P2
2023/06/18 00:00:29;;;;;;;15.20;14.13;;;21.60;11.20;;;;;;4988429;28;20316;-60
2023/06/18 00:02:55;;;;;;;14.40;13.40;;;21.60;11.40;;;;;;4988031;28;20197;-61
2023/06/18 00:05:21;;;;;;;14.07;12.77;;;21.50;11.50;;;;;;4988404;28;20179;-60
2023/06/18 00:07:46;;;;;;;14.47;13.43;;;21.50;11.60;;;;;;4972242;28;20189;-59
2023/06/18 00:10:12;;;;;;;15.33;13.83;;;21.50;11.90;;;;;;4988404;28;20328;-60
2023/06/18 00:12:38;;;;;;;14.80;13.70;;;21.40;11.90;;;;;;4987653;28;20221;-61
2023/06/18 00:15:04;;;;;;;14.17;13.27;;;21.50;12.00;;;;;;4988241;28;20258;-61
2023/06/18 00:17:30;;;;;;;14.33;13.13;;;21.40;11.90;;;;;;4988377;28;20836;-60
2023/06/18 00:19:56;;;;;;;14.33;13.23;;;21.40;11.90;;;;;;4972080;28;20445;-60
2023/06/18 00:22:23;;;;;;;14.03;13.00;;;21.40;11.90;;;;;;4987658;28;20426;-61
2023/06/18 00:24:48;;;;;;;13.87;12.77;;;21.40;12.00;;;;;;4987494;28;20210;-61
2023/06/18 00:27:14;;;;;;;14.90;13.90;;;21.30;11.90;;;;;;4988174;28;20465;-61
2023/06/18 00:29:40;;;;;;;14.97;13.67;;;21.30;11.90;;;;;;4988217;28;20182;-61
2023/06/18 00:32:07;;;;;;;14.77;13.77;;;21.30;12.00;;;;;;4987584;28;20524;-61
2023/06/18 00:34:33;;;;;;;13.27;12.47;;;21.30;12.00;;;;;;4988222;28;20182;-61
2023/06/18 00:37:02;;;;;;;14.03;12.90;;;21.30;12.10;;;;;;4988206;28;20430;-60
2023/06/18 00:39:29;;;;;;;14.67;13.67;;;21.30;12.10;;;;;;4988010;28;20550;-61
2023/06/18 00:41:54;;;;;;;15.03;13.47;;;21.30;12.10;;;;;;4972558;28;20489;-60
2023/06/18 00:44:20;;;;;;;15.37;14.27;;;21.20;12.20;;;;;;4973178;28;20445;-61
2023/06/18 00:46:48;;;;;;;15.43;14.10;;;21.20;12.10;;;;;;4988241;28;20521;-60
2023/06/18 00:49:18;;;;;;;14.87;13.53;;;21.20;12.20;;;;;;4988013;28;20502;-60
2023/06/18 00:51:45;;;;;;;14.73;13.80;;;21.20;12.20;;;;;;4987346;28;20479;-60
2023/06/18 00:54:15;;;;;;;15.50;14.30;;;21.20;12.20;;;;;;4987981;28;20426;-61
2023/06/18 00:56:50;;;;;;;15.70;14.40;;;21.10;12.00;;;;;;4987893;28;20414;-61
2023/06/18 00:59:23;;;;;;;15.17;13.87;;;21.20;12.20;;;;;;4987980;28;20420;-60
2023/06/18 01:01:53;;;;;;;15.43;14.13;;;21.10;12.30;;;;;;4987484;28;20509;-60
2023/06/18 01:04:22;;;;;;;14.70;13.57;;;21.10;12.30;;;;;;4987918;28;20422;-60
2023/06/18 01:06:51;;;;;;;14.07;13.07;;;21.10;12.30;;;;;;4987764;28;20414;-61
2023/06/18 01:09:22;;;;;;;15.53;14.13;;;21.10;12.40;;;;;;4988639;28;20433;-59
2023/06/18 01:11:52;;;;;;;14.00;13.00;;;21.10;12.40;;;;;;4990997;28;20489;-60
2023/06/18 01:14:22;;;;;;;14.63;13.50;;;21.00;12.50;;;;;;4991847;28;20508;-61
2023/06/18 01:16:54;;;;;;;15.27;13.97;;;21.00;12.50;;;;;;4991412;28;20926;-60
2023/06/18 01:19:35;;;;;;;14.87;13.63;;;21.00;12.50;;;;;;4991449;28;20509;-61
2023/06/18 01:22:08;;;;;;;14.07;13.00;;;21.00;12.60;;;;;;4991240;28;20790;-60
2023/06/18 01:24:38;;;;;;;14.80;13.70;;;21.00;12.60;;;;;;4991445;28;20449;-61
2023/06/18 01:27:05;;;;;;;15.00;13.43;;;21.00;12.50;;;;;;4991388;28;20508;-61
2023/06/18 01:29:31;;;;;;;14.47;13.13;;;21.00;12.50;;;;;;4991312;28;20428;-62
2023/06/18 01:31:57;;;;;;;13.83;12.83;;;21.00;12.50;;;;;;4990843;28;20531;-60
2023/06/18 01:34:24;;;;;;;14.33;12.83;;;20.90;12.40;;;;;;4991448;28;20806;-60
2023/06/18 01:37:28;;;;;;;15.20;14.10;;;20.90;12.60;;;;;;4991281;28;20182;-61
2023/06/18 01:40:33;;;;;;;14.60;13.40;;;20.90;12.60;;;;;;4990969;28;20441;-60
2023/06/18 01:43:12;;;;;;;15.20;14.00;;;20.90;12.60;;;;;;4983575;28;20436;-60
2023/06/18 01:45:54;;;;;;;14.30;13.30;;;20.90;12.90;;;;;;4991034;28;20791;-60
2023/06/18 01:48:22;;;;;;;13.80;12.93;;;20.90;12.80;;;;;;4991012;28;20446;-61
2023/06/18 01:50:49;;;;;;;14.57;13.40;;;20.80;12.80;;;;;;4990807;28;20453;-61
2023/06/18 01:53:22;;;;;;;14.37;13.47;;;20.80;13.00;;;;;;4990374;28;20426;-60
2023/06/18 01:55:51;;;;;;;15.10;14.03;;;20.80;13.00;;;;;;4990987;28;20422;-60
2023/06/18 01:58:20;;;;;;;13.50;12.60;;;20.70;12.90;;;;;;4990707;28;20489;-60
2023/06/18 02:00:46;;;;;;;14.10;13.13;;;20.70;13.00;;;;;;4990713;28;20512;-60
2023/06/18 02:03:12;;;;;;;14.97;13.97;;;20.60;13.10;;;;;;4990288;28;20426;-60
2023/06/18 02:05:37;;;;;;;14.50;13.30;;;20.70;13.10;;;;;;4990635;28;20183;-61
2023/06/18 02:08:03;;;;;;;14.13;13.23;;;20.60;13.00;;;;;;4990679;28;20186;-60
2023/06/18 02:10:29;;;;;;;14.03;13.03;;;20.60;13.10;;;;;;4991019;28;20175;-60
2023/06/18 02:12:54;;;;;;;13.87;12.97;;;20.70;13.00;;;;;;4990016;28;20387;-61
2023/06/18 02:15:20;;;;;;;14.67;13.70;;;20.70;13.10;;;;;;4990614;28;20178;-61
2023/06/18 02:17:46;;;;;;;14.33;13.50;;;20.60;13.00;;;;;;4990651;28;20179;-60
2023/06/18 02:20:12;;;;;;;13.43;12.53;;;20.60;13.10;;;;;;4990337;28;20418;-61
2023/06/18 02:22:38;;;;;;;14.47;13.47;;;20.50;13.30;;;;;;4988984;28;20178;-60
2023/06/18 02:25:08;;;;;;;14.10;13.10;;;20.50;13.20;;;;;;4990137;28;20237;-60
2023/06/18 02:27:33;;;;;;;13.40;12.50;;;20.50;13.10;;;;;;4990262;28;20425;-61
2023/06/18 02:30:03;;;;;;;14.10;13.10;;;20.50;13.40;;;;;;4990174;28;20911;-60
2023/06/18 02:32:31;;;;;;;14.33;13.10;;;20.40;13.30;;;;;;4989663;28;20211;-60
2023/06/18 02:34:58;;;;;;;14.73;13.73;;;20.40;13.40;;;;;;4990065;28;20485;-60
2023/06/18 02:37:23;;;;;;;14.37;13.17;;;20.40;13.40;;;;;;4975153;28;20409;-60
2023/06/18 02:39:49;;;;;;;13.73;12.80;;;20.40;13.90;;;;;;4989901;28;20417;-60
2023/06/18 02:42:20;;;;;;;14.37;13.43;;;20.40;13.40;;;;;;4989522;28;20182;-60
2023/06/18 02:44:46;;;;;;;14.13;13.10;;;20.40;13.30;;;;;;4989870;28;20643;-61
2023/06/18 02:47:12;;;;;;;14.80;13.73;;;20.40;13.40;;;;;;4989871;28;20420;-60
2023/06/18 02:49:37;;;;;;;14.40;13.30;;;20.40;13.30;;;;;;4989719;28;20930;-60
2023/06/18 02:52:03;;;;;;;13.47;12.57;;;20.40;13.40;;;;;;4989225;28;20779;-60
2023/06/18 02:54:29;;;;;;;15.53;14.40;;;20.30;13.30;;;;;;4989712;28;20241;-60
2023/06/18 02:56:55;;;;;;;13.63;12.83;;;20.30;13.30;;;;;;4989668;28;20924;-61
2023/06/18 02:59:20;;;;;;;13.47;12.67;;;20.30;13.30;;;;;;4989648;28;20181;-60
2023/06/18 03:01:46;;;;;;;14.77;13.77;;;20.30;13.30;;;;;;4989039;28;20185;-59
2023/06/18 03:04:12;;;;;;;13.53;12.63;;;20.30;13.30;;;;;;4989483;28;20753;-60
2023/06/18 03:06:38;;;;;;;14.30;13.30;;;20.30;13.50;;;;;;4989520;28;20178;-60
2023/06/18 03:09:04;;;;;;;14.43;13.40;;;20.20;13.40;;;;;;4989576;28;21069;-61
2023/06/18 03:11:30;;;;;;;14.17;13.13;;;20.20;13.60;;;;;;4988785;28;20714;-61
2023/06/18 03:13:56;;;;;;;14.20;13.10;;;20.20;14.30;;;;;;4989290;28;20913;-60
2023/06/18 03:16:23;;;;;;;13.10;12.30;;;20.20;13.70;;;;;;4989314;28;20417;-60
2023/06/18 03:18:50;;;;;;;14.17;13.27;;;20.20;13.70;;;;;;4989242;28;20945;-59
2023/06/18 03:21:15;;;;;;;13.93;12.93;;;20.20;13.80;;;;;;4988725;28;20434;-60
2023/06/18 03:23:43;;;;;;;14.97;13.97;;;20.20;13.80;;;;;;4989144;28;20410;-60
2023/06/18 03:26:09;;;;;;;14.23;12.97;;;20.20;14.10;;;;;;4989442;28;20178;-60
2023/06/18 03:28:35;;;;;;;14.40;13.37;;;20.10;14.00;;;;;;4989153;28;20422;-60
2023/06/18 03:31:02;;;;;;;13.97;12.97;;;20.10;14.20;;;;;;4989018;28;20757;-60
2023/06/18 03:33:29;;;;;;;14.40;13.37;;;20.10;14.20;;;;;;4988718;28;20426;-60
2023/06/18 03:35:55;;;;;;;14.13;13.17;;;20.10;14.20;;;;;;4988921;28;20473;-61
2023/06/18 03:38:21;;;;;;;14.57;13.47;;;20.10;14.30;;;;;;4988960;28;20835;-60
2023/06/18 03:40:46;;;;;;;14.30;13.13;;;20.10;14.30;;;;;;4988787;28;20537;-60
2023/06/18 03:43:12;;;;;;;13.33;12.43;;;20.10;14.20;;;;;;4988297;28;20209;-60
2023/06/18 03:45:37;;;;;;;12.97;12.00;;;20.10;14.20;;;;;;4988751;28;20281;-60
2023/06/18 03:48:03;;;;;;;13.57;12.57;;;20.10;14.20;;;;;;4973935;28;20236;-60
2023/06/18 03:50:29;;;;;;;13.63;12.70;;;20.10;14.20;;;;;;4988721;28;20556;-60
2023/06/18 03:52:55;;;;;;;13.67;12.63;;;20.10;14.10;;;;;;4988125;28;20466;-60
2023/06/18 03:55:21;;;;;;;14.73;13.60;;;20.10;14.10;;;;;;4988791;28;20249;-60
2023/06/18 03:57:47;;;;;;;13.90;13.00;;;20.10;14.30;;;;;;4988583;28;20422;-61
2023/06/18 04:00:13;;;;;;;13.53;12.33;;;20.10;14.30;;;;;;4988662;28;20666;-60
2023/06/18 04:02:38;;;;;;;13.50;12.40;;;20.00;14.30;;;;;;4988015;28;20422;-60
2023/06/18 04:05:04;;;;;;;13.70;12.70;;;20.00;14.30;;;;;;4988504;28;20186;-60
2023/06/18 04:07:30;;;;;;;13.83;12.67;;;20.00;14.20;;;;;;4988477;28;20232;-59
2023/06/18 04:09:55;;;;;;;13.20;12.40;;;20.00;14.30;;;;;;4988480;28;20667;-60
2023/06/18 04:12:21;;;;;;;14.07;13.03;;;20.00;14.40;;;;;;4987922;28;20645;-59
2023/06/18 04:14:47;;;;;;;13.80;12.80;;;20.00;14.50;;;;;;4988273;28;20183;-60
2023/06/18 04:17:13;;;;;;;13.43;12.43;;;20.00;14.40;;;;;;4988417;28;20183;-59
2023/06/18 04:19:38;;;;;;;13.63;12.73;;;20.00;14.60;;;;;;4988268;28;20204;-60
2023/06/18 04:22:05;;;;;;;14.00;13.00;;;20.00;14.60;;;;;;4971665;28;20186;-60
2023/06/18 04:24:31;;;;;;;13.63;12.50;;;20.00;14.40;;;;;;4988322;28;20558;-60
2023/06/18 04:26:56;;;;;;;12.93;12.00;;;20.00;14.10;;;;;;4973432;28;20426;-61
2023/06/18 04:29:22;;;;;;;13.43;12.43;;;20.00;14.40;;;;;;4988365;28;20189;-61
2023/06/18 04:31:47;;;;;;;13.70;12.70;;;19.90;14.10;;;;;;4987611;28;20667;-61
2023/06/18 04:34:13;;;;;;;13.33;12.37;;;19.80;14.40;;;;;;4988176;28;20210;-60
2023/06/18 04:36:40;;;;;;;13.53;12.43;;;19.80;14.70;;;;;;4987830;28;20179;-60
2023/06/18 04:39:06;;;;;;;13.60;12.50;;;19.90;14.60;;;;;;4988381;28;20217;-60
2023/06/18 04:41:31;;;;;;;14.33;13.23;;;19.90;14.50;;;;;;4987724;28;20470;-60
2023/06/18 04:43:57;;;;;;;15.33;14.00;;;19.90;14.30;;;;;;4988401;28;20187;-61
2023/06/18 04:46:22;;;;;;;14.43;13.10;;;19.80;14.70;;;;;;4992291;28;20558;-61
2023/06/18 04:48:48;;;;;;;15.07;13.87;;;19.70;15.00;;;;;;4992035;28;20214;-60
2023/06/18 04:51:14;;;;;;;14.83;13.83;;;19.60;15.40;;;;;;4991617;28;20187;-60
2023/06/18 04:53:40;;;;;;;15.27;14.03;;;19.50;15.60;;;;;;4991939;28;20187;-61
2023/06/18 04:56:06;;;;;;;14.77;13.77;;;19.50;15.80;;;;;;4992101;28;20182;-60
2023/06/18 04:58:36;;;;;;;14.17;13.27;;;19.50;16.00;;;;;;4992030;28;20414;-60
2023/06/18 05:01:02;;;;;;;14.90;13.70;;;19.50;15.80;;;;;;4991787;28;21075;-61
2023/06/18 05:03:28;;;;;;;13.70;12.70;;;19.50;15.90;;;;;;4991648;28;20508;-61
2023/06/18 05:05:54;;;;;;;15.07;13.87;;;19.50;16.00;;;;;;4991833;28;20512;-60
2023/06/18 05:08:20;;;;;;;14.70;13.70;;;19.40;16.00;;;;;;4991914;28;20185;-60
2023/06/18 05:10:45;;;;;;;15.40;14.20;;;19.40;16.00;;;;;;4991673;28;20657;-60
2023/06/18 05:13:12;;;;;;;14.53;13.57;;;19.40;16.10;;;;;;4991330;28;20626;-61
2023/06/18 05:15:37;;;;;;;14.87;13.67;;;19.40;16.10;;;;;;4991543;28;20187;-60
2023/06/18 05:18:03;;;;;;;13.57;12.37;;;19.40;16.20;;;;;;4991430;28;20585;-60
2023/06/18 05:20:29;;;;;;;14.47;13.50;;;19.40;16.30;;;;;;4991513;28;20174;-60
2023/06/18 05:22:55;;;;;;;14.37;13.47;;;19.60;16.30;;;;;;4990897;28;20201;-60
2023/06/18 05:25:20;;;;;;;14.80;13.70;;;19.60;15.90;;;;;;4991374;28;20509;-59
2023/06/18 05:27:46;;;;;;;14.57;13.57;;;19.60;16.00;;;;;;4991342;28;20190;-60
2023/06/18 05:30:12;;;;;;;14.20;13.30;;;19.60;16.30;;;;;;4991352;28;20549;-59
2023/06/18 05:32:38;;;;;;;14.60;13.60;;;19.60;16.40;;;;;;4990723;28;20210;-60
2023/06/18 05:35:04;;;;;;;13.50;12.60;;;19.60;16.20;;;;;;4991358;28;20644;-60
2023/06/18 05:37:30;;;;;;;14.30;13.40;;;19.70;16.40;;;;;;4991152;28;20484;-61
2023/06/18 05:39:55;;;;;;;13.93;13.10;;;19.80;16.40;;;;;;4975957;28;20531;-60
2023/06/18 05:42:21;;;;;;;13.77;12.87;;;19.90;16.30;;;;;;4990833;28;20198;-61
2023/06/18 05:44:46;;;;;;;13.27;12.47;;;20.00;16.30;;;;;;4991139;28;20189;-60
2023/06/18 05:47:12;;;;;;;14.40;13.40;;;20.00;16.30;;;;;;4991200;28;20183;-61
2023/06/18 05:49:37;;;;;;;14.23;13.33;;;20.10;16.30;;;;;;4991095;28;20557;-60
2023/06/18 05:52:03;;;;;;;14.97;13.87;;;20.20;15.70;;;;;;4990446;28;20234;-61
2023/06/18 05:54:29;;;;;;;14.07;13.10;;;20.00;15.70;;;;;;4991146;28;20259;-60
2023/06/18 05:56:55;;;;;;;13.27;12.37;;;20.00;16.10;;;;;;4989630;28;20242;-60
2023/06/18 05:59:21;;;;;;;13.60;12.60;;;19.90;16.00;;;;;;4990853;28;20178;-60
2023/06/18 06:01:46;;;;;;;14.00;13.00;;;20.00;16.20;;;;;;4990204;28;20298;-60
2023/06/18 06:04:12;;;;;;;14.40;13.00;;;20.10;16.30;;;;;;4990646;28;20977;-60
2023/06/18 06:06:38;;;;;;;14.50;13.50;;;20.10;16.20;;;;;;4990629;28;20185;-59
2023/06/18 06:09:03;;;;;;;14.93;13.73;;;20.10;15.80;;;;;;4990592;28;20296;-59
2023/06/18 06:11:29;;;;;;;13.17;12.30;;;20.20;15.90;;;;;;4990153;28;20313;-61
2023/06/18 06:13:57;;;;;;;14.10;13.00;;;20.20;15.50;;;;;;4990508;28;20208;-59
2023/06/18 06:16:22;;;;;;;13.90;12.90;;;20.20;15.60;;;;;;4990754;28;20454;-60
2023/06/18 06:18:49;;;;;;;13.17;12.20;;;20.20;15.60;;;;;;4990460;28;20468;-61
2023/06/18 06:21:14;;;;;;;14.53;13.43;;;20.30;15.80;;;;;;4990097;28;20277;-60
2023/06/18 06:23:40;;;;;;;14.17;13.13;;;20.40;15.90;;;;;;4990232;28;20509;-59
2023/06/18 06:26:06;;;;;;;14.10;13.10;;;20.40;15.50;;;;;;4990402;28;20190;-60
2023/06/18 06:28:31;;;;;;;13.30;12.30;;;20.50;15.50;;;;;;4990244;28;20183;-60
2023/06/18 06:30:57;;;;;;;14.50;13.20;;;20.50;15.20;;;;;;4990044;28;20651;-60
2023/06/18 06:33:23;;;;;;;13.73;12.83;;;20.60;15.20;;;;;;4989576;28;20298;-60
2023/06/18 06:35:48;;;;;;;14.33;13.37;;;20.70;15.20;;;;;;4990155;28;20182;-60
2023/06/18 06:38:14;;;;;;;15.00;13.80;;;20.70;15.20;;;;;;4989994;28;20621;-60
2023/06/18 06:40:41;;;;;;;14.57;13.40;;;20.80;15.30;;;;;;4989902;28;20190;-59
2023/06/18 06:43:06;;;;;;;15.40;14.20;;;20.80;15.50;;;;;;4989562;28;20182;-59
2023/06/18 06:45:32;;;;;;;13.43;12.53;;;20.90;15.10;;;;;;4989903;28;20480;-60
2023/06/18 06:47:58;;;;;;;13.57;12.57;;;21.00;15.10;;;;;;4989904;28;20320;-60
2023/06/18 06:50:24;;;;;;;13.30;12.40;;;21.10;14.90;;;;;;4990157;28;20461;-59
2023/06/18 06:52:50;;;;;;;13.47;12.57;;;21.20;14.60;;;;;;4989305;28;20293;-61
2023/06/18 06:55:16;;;;;;;14.20;13.20;;;21.20;14.30;;;;;;4989810;28;20549;-60
2023/06/18 06:57:41;;;;;;;13.47;12.67;;;21.40;14.00;;;;;;4989666;28;20178;-61
2023/06/18 07:00:08;;;;;;;13.40;12.50;;;21.40;14.00;;;;;;4989589;28;20182;-60
2023/06/18 07:02:34;;;;;;;16.43;12.93;;;21.50;14.10;;;;;;4989075;28;20644;-60
2023/06/18 07:04:59;;;;;;;13.23;12.33;;;21.50;14.10;;;;;;4989481;28;20429;-61
2023/06/18 07:07:25;;;;;;;14.47;13.50;;;21.50;13.90;;;;;;4989304;28;20289;-60
2023/06/18 07:09:51;;;;;;;12.60;11.60;;;21.60;14.00;;;;;;4989543;28;20595;-60
2023/06/18 07:12:16;;;;;;;13.70;12.50;;;21.70;14.20;;;;;;4989035;28;20242;-61
2023/06/18 07:14:42;;;;;;;13.10;12.20;;;21.80;13.50;;;;;;4989283;28;20185;-61
2023/06/18 07:17:08;;;;;;;12.43;11.47;;;21.80;13.60;;;;;;4989522;28;20755;-60
2023/06/18 07:19:33;;;;;;;12.60;11.80;;;21.90;13.10;;;;;;4989383;28;20182;-60
2023/06/18 07:22:00;;;;;;;13.57;12.40;;;22.10;12.90;;;;;;4988859;28;20182;-61
2023/06/18 07:24:26;;;;;;;13.40;12.50;;;22.20;12.60;;;;;;4989246;28;20702;-61
2023/06/18 07:26:51;;;;;;;13.57;12.60;;;22.20;12.70;;;;;;4989053;28;20430;-60
2023/06/18 07:29:17;;;;;;;13.10;12.20;;;22.30;12.70;;;;;;4989075;28;20274;-60
2023/06/18 07:31:42;;;;;;;12.10;11.30;;;22.50;12.20;;;;;;4988300;28;20702;-62
2023/06/18 07:34:08;;;;;;;12.20;11.50;;;22.50;12.30;;;;;;4988914;28;20182;-60
2023/06/18 07:36:34;;;;;;;12.40;11.40;;;22.70;11.90;;;;;;4988900;28;20182;-61
2023/06/18 07:39:00;;;;;;;12.23;11.23;;;22.70;11.90;;;;;;4988831;28;20183;-59
2023/06/18 07:41:25;;;;;;;12.90;12.00;;;22.80;11.40;;;;;;4988452;28;20194;-60
2023/06/18 07:43:51;;;;;;;12.90;12.00;;;22.80;11.90;;;;;;4988148;28;20186;-60
2023/06/18 07:46:17;;;;;;;12.30;11.40;;;22.80;11.60;;;;;;4988864;28;20212;-60
2023/06/18 07:48:43;;;;;;;11.50;10.70;;;22.90;10.80;;;;;;4988726;28;20652;-60
2023/06/18 07:51:08;;;;;;;11.10;10.30;;;22.90;11.30;;;;;;4988319;28;20274;-61
2023/06/18 07:53:34;;;;;;;10.40;9.57;;;22.90;10.90;;;;;;4988406;28;20330;-61
2023/06/18 07:56:00;;;;;;;13.37;12.20;;;22.90;11.10;;;;;;4988581;28;20183;-60
2023/06/18 07:58:25;;;;;;;12.33;10.93;;;23.00;10.70;;;;;;4988649;28;20170;-61
2023/06/18 08:00:51;;;;;;;11.33;10.43;;;23.00;10.90;;;;;;4988549;28;20241;-61
2023/06/18 08:03:17;;;;;;;11.67;10.50;;;23.10;10.80;;;;;;4988194;28;20226;-61
2023/06/18 08:05:43;;;;;;;11.63;10.87;;;23.20;10.40;;;;;;4988376;28;20682;-60
2023/06/18 08:08:08;;;;;;;11.10;10.30;;;23.30;10.40;;;;;;4988607;28;20266;-60
2023/06/18 08:10:34;;;;;;;11.20;10.50;;;23.40;10.30;;;;;;4988007;28;20464;-60
2023/06/18 08:12:59;;;;;;;11.67;10.63;;;23.60;10.00;;;;;;4987749;28;20264;-61
2023/06/18 08:15:25;;;;;;;11.03;10.13;;;23.70;10.00;;;;;;4988479;28;20171;-61
2023/06/18 08:17:52;;;;;;;10.70;9.80;;;23.80;10.00;;;;;;4973549;28;20666;-60
2023/06/18 08:20:18;;;;;;;13.73;11.00;;;23.90;9.50;;;;;;4987754;28;20813;-60
2023/06/18 08:22:44;;;;;;;11.90;10.90;;;24.10;8.50;;;;;;4972834;28;20513;-60
2023/06/18 08:25:10;;;;;;;11.47;10.50;;;24.20;8.80;;;;;;4988200;28;21050;-60
2023/06/18 08:27:35;;;;;;;9.77;9.07;;;24.20;8.70;;;;;;4973578;28;20206;-60
2023/06/18 08:30:01;;;;;;;10.90;10.17;;;24.20;7.80;;;;;;4973319;28;20253;-60
2023/06/18 08:32:27;;;;;;;11.10;10.20;;;24.40;9.10;;;;;;4987553;28;20214;-60
2023/06/18 08:34:53;;;;;;;11.90;10.90;;;24.60;9.20;;;;;;4988028;28;20494;-61
2023/06/18 08:37:18;;;;;;;12.03;11.03;;;24.60;9.30;;;;;;4988048;28;20174;-60
2023/06/18 08:39:44;;;;;;;11.20;10.30;;;24.60;9.30;;;;;;4987843;28;20181;-60
2023/06/18 08:42:13;;;;;;;10.53;9.87;;;24.70;8.80;;;;;;4987629;28;20186;-61
2023/06/18 08:44:38;;;;;;;11.13;10.03;;;24.70;8.60;;;;;;4988135;28;20175;-61
2023/06/18 08:47:04;;;;;;;10.67;9.83;;;24.80;8.20;;;;;;4988042;28;20421;-61
2023/06/18 08:49:32;;;;;;;9.87;9.23;;;25.00;7.60;;;;;;4988171;28;20550;-61
2023/06/18 08:52:02;;;;;;;16.73;10.40;;;25.00;7.60;;;;;;4987424;28;20823;-61
2023/06/18 08:54:32;;;;;;;9.47;8.77;;;25.00;7.60;;;;;;4988154;28;20410;-62
2023/06/18 08:57:06;;;;;;;10.40;9.70;;;24.90;7.00;;;;;;4987908;28;20426;-61
2023/06/18 08:59:33;;;;;;;10.10;9.30;;;25.10;6.20;;;;;;4987837;28;20415;-61
2023/06/18 09:01:59;;;;;;;10.30;9.60;;;25.30;5.10;;;;;;4987501;28;20508;-61
2023/06/18 09:04:26;;;;;;;9.83;9.13;;;25.40;5.50;;;;;;4987879;28;20414;-60
2023/06/18 09:06:53;;;;;;;9.77;8.97;;;25.50;4.30;;;;;;4987949;28;20417;-60
2023/06/18 09:09:20;;;;;;;9.47;8.63;;;25.50;4.60;;;;;;4988130;28;20418;-61
2023/06/18 09:11:46;;;;;;;9.93;9.20;;;25.50;2.60;;;;;;4987310;28;20457;-60
2023/06/18 09:14:14;;;;;;;8.90;8.37;;;25.40;2.70;;;;;;4987925;28;20698;-60
2023/06/18 09:16:40;;;;;;;10.77;9.53;;;25.50;2.60;;;;;;4987902;28;20214;-60
2023/06/18 09:19:06;;;;;;;9.70;9.00;;;25.70;2.60;;;;;;4987680;28;20540;-60
2023/06/18 09:21:38;;;;;;;9.60;8.90;;;25.80;1.90;;;;;;4987318;28;20186;-60
2023/06/18 09:24:26;;;;;;;9.33;8.70;;;26.00;1.00;;;;;;4987574;28;20424;-60
2023/06/18 09:27:03;;;;;;;10.10;9.23;;;26.20;1.10;;;;;;4987747;28;20521;-60
2023/06/18 09:29:30;;;;;;;8.40;7.80;;;26.40;1.00;;;;;;4987799;28;20428;-60
2023/06/18 09:31:55;;;;;;;8.70;8.03;;;26.40;1.00;;;;;;4990185;28;20469;-59
2023/06/18 09:34:22;;;;;;;9.83;9.00;;;26.60;1.00;;;;;;4976492;28;20412;-60
2023/06/18 09:36:50;;;;;;;11.90;8.93;;;26.60;1.00;;;;;;4975015;28;20660;-61
2023/06/18 09:39:21;;;;;;;9.20;8.60;;;26.70;1.00;;;;;;4991129;28;20421;-60
2023/06/18 09:41:49;;;;;;;8.73;8.13;;;26.80;1.00;;;;;;4990407;28;20528;-60
2023/06/18 09:44:16;;;;;;;8.90;8.20;;;26.90;1.00;;;;;;4991090;28;20497;-60
2023/06/18 09:46:43;;;;;;;8.90;8.30;;;26.90;1.00;;;;;;4990980;28;20760;-60
2023/06/18 09:49:11;;;;;;;8.90;8.20;;;26.80;1.00;;;;;;4990960;28;20425;-61
2023/06/18 09:51:43;;;;;;;9.60;8.80;;;26.80;1.00;;;;;;4990409;28;21006;-60
2023/06/18 09:54:09;;;;;;;8.93;8.27;;;26.90;1.00;;;;;;4990888;28;20418;-60
2023/06/18 09:56:36;;;;;;;8.70;8.03;;;27.00;1.00;;;;;;4990814;28;20432;-60
2023/06/18 09:59:03;;;;;;;10.30;9.60;;;27.20;1.00;;;;;;4990722;28;20941;-60
2023/06/18 10:01:50;;;;;;;9.77;8.97;;;27.40;1.00;;;;;;4990228;28;20458;-61
2023/06/18 10:04:16;;;;;;;9.77;9.07;;;27.50;1.00;;;;;;4990287;28;20457;-61
2023/06/18 10:06:51;;;;;;;10.40;9.60;;;27.80;1.00;;;;;;4990640;28;20426;-61
2023/06/18 10:09:19;;;;;;;10.47;9.77;;;28.00;1.00;;;;;;4990637;28;20422;-61
2023/06/18 10:11:48;;;;;;;10.13;9.23;;;28.20;1.00;;;;;;4989826;28;20457;-61
2023/06/18 10:14:16;;;;;;;9.70;9.00;;;28.30;1.00;;;;;;4990755;28;20847;-61
2023/06/18 10:16:50;;;;;;;9.83;8.93;;;28.50;1.00;;;;;;4990517;28;20428;-61
2023/06/18 10:19:31;;;;;;;9.10;8.50;;;28.80;1.00;;;;;;4990396;28;20468;-61
2023/06/18 10:22:04;;;;;;;9.20;8.60;;;28.80;1.00;;;;;;4989819;28;20425;-61
2023/06/18 10:24:39;;;;;;;9.87;9.17;;;28.90;1.00;;;;;;4990417;28;20828;-61
2023/06/18 10:27:06;;;;;;;9.87;9.20;;;29.10;1.00;;;;;;4990259;28;20417;-61
2023/06/18 10:29:33;;;;;;;9.07;8.47;;;29.00;1.00;;;;;;4990271;28;20418;-61
2023/06/18 10:32:04;;;;;;;9.13;8.53;;;29.10;1.00;;;;;;4974664;28;20803;-61
2023/06/18 10:34:31;;;;;;;9.80;9.20;;;29.10;1.00;;;;;;4990170;28;20418;-61
2023/06/18 10:36:58;;;;;;;10.20;9.60;;;29.00;1.00;;;;;;4990038;28;20907;-61
2023/06/18 10:39:25;;;;;;;9.70;9.10;;;28.90;1.00;;;;;;4990149;28;20423;-62
2023/06/18 10:41:54;;;;;;;8.60;8.07;;;29.00;1.00;;;;;;4988785;28;20533;-62
2023/06/18 10:44:49;;;;;;;10.83;9.83;;;28.90;1.00;;;;;;4990034;28;20426;-61
2023/06/18 10:47:36;;;;;;;10.13;9.23;;;28.80;1.00;;;;;;4989909;28;20414;-61
2023/06/18 10:50:08;;;;;;;9.47;8.80;;;28.70;1.00;;;;;;4990341;28;20425;-61
2023/06/18 10:52:40;;;;;;;9.20;8.60;;;28.60;1.00;;;;;;4989351;28;20478;-61
2023/06/18 10:55:06;;;;;;;10.30;9.60;;;28.70;1.00;;;;;;4989629;28;20422;-61
2023/06/18 10:57:36;;;;;;;9.63;9.03;;;28.70;1.00;;;;;;4989798;28;20469;-60
2023/06/18 11:00:13;;;;;;;10.10;9.50;;;28.80;1.00;;;;;;4989722;28;20780;-61
2023/06/18 11:02:39;;;;;;;10.50;9.73;;;28.70;1.00;;;;;;4989281;28;20483;-61
2023/06/18 11:05:05;;;;;;;9.77;8.97;;;28.80;1.00;;;;;;4989544;28;20782;-61
2023/06/18 11:07:31;;;;;;;9.80;9.07;;;28.80;1.00;;;;;;4974749;28;20186;-61
2023/06/18 11:10:00;;;;;;;10.20;9.30;;;28.80;1.00;;;;;;4989475;28;20838;-61
2023/06/18 11:12:36;;;;;;;8.90;8.20;;;29.00;1.00;;;;;;4988878;28;20469;-60
2023/06/18 11:15:17;;;;;;;9.00;8.40;;;29.00;1.00;;;;;;4989513;28;20769;-61
2023/06/18 11:17:50;;;;;;;9.87;9.27;;;29.00;1.00;;;;;;4989371;28;20488;-60
2023/06/18 11:20:20;;;;;;;9.23;8.43;;;29.00;1.00;;;;;;4989374;28;20410;-61
2023/06/18 11:22:47;;;;;;;10.13;9.00;;;28.90;1.00;;;;;;4988751;28;20430;-61
2023/06/18 11:25:14;;;;;;;10.57;9.30;;;28.80;1.00;;;;;;4989267;28;20453;-61
2023/06/18 11:27:45;;;;;;;9.90;9.20;;;28.70;1.00;;;;;;4989073;28;20428;-61
2023/06/18 11:30:12;;;;;;;9.20;8.60;;;28.60;1.00;;;;;;4974259;28;20444;-61
2023/06/18 11:32:39;;;;;;;10.73;9.67;;;28.60;1.00;;;;;;4988566;28;20536;-61
2023/06/18 11:35:07;;;;;;;8.37;7.77;;;28.80;1.00;;;;;;4989178;28;20414;-61
2023/06/18 11:37:33;;;;;;;9.17;8.47;;;28.80;1.00;;;;;;4988993;28;20449;-61
2023/06/18 11:39:59;;;;;;;10.47;9.67;;;28.70;1.00;;;;;;4973963;28;20480;-61
2023/06/18 11:42:28;;;;;;;9.77;9.17;;;28.70;1.00;;;;;;4988395;28;20509;-61
2023/06/18 11:45:02;;;;;;;8.77;8.27;;;28.70;1.00;;;;;;4988907;28;20197;-61
2023/06/18 11:47:29;;;;;;;9.30;8.67;;;28.60;1.00;;;;;;4988862;28;20458;-62
2023/06/18 11:49:55;;;;;;;9.20;8.60;;;28.70;1.00;;;;;;4988720;28;20488;-61
2023/06/18 11:52:23;;;;;;;8.67;8.17;;;28.90;1.00;;;;;;4988112;28;20470;-61
2023/06/18 11:54:50;;;;;;;9.10;8.30;;;29.10;1.00;;;;;;4987793;28;20492;-61
2023/06/18 11:57:18;;;;;;;9.83;9.20;;;29.00;1.00;;;;;;4988737;28;20418;-61
2023/06/18 11:59:46;;;;;;;9.80;9.17;;;28.80;1.00;;;;;;4988507;28;20422;-62
2023/06/18 12:02:13;;;;;;;8.30;7.80;;;28.60;1.00;;;;;;4988022;28;20526;-61
2023/06/18 12:04:40;;;;;;;8.57;8.07;;;28.50;1.00;;;;;;4988542;28;20433;-61
2023/06/18 12:07:07;;;;;;;9.83;9.23;;;28.40;1.00;;;;;;4988505;28;20961;-61
2023/06/18 12:09:35;;;;;;;9.23;8.63;;;28.40;1.00;;;;;;4988522;28;20422;-61
2023/06/18 12:12:19;;;;;;;9.23;8.50;;;28.60;1.00;;;;;;4987842;28;20466;-60
2023/06/18 12:14:54;;;;;;;8.73;8.17;;;28.80;1.00;;;;;;4988385;28;20457;-60
2023/06/18 12:17:50;;;;;;;8.83;8.23;;;29.20;1.00;;;;;;4988527;28;20635;-61
2023/06/18 12:20:19;;;;;;;8.90;8.30;;;29.30;1.00;;;;;;4988421;28;20471;-62
2023/06/18 12:22:45;;;;;;;10.30;9.60;;;29.30;1.00;;;;;;4987870;28;20836;-61
2023/06/18 12:25:12;;;;;;;9.60;9.00;;;29.10;1.00;;;;;;4988273;28;20418;-60
2023/06/18 12:27:39;;;;;;;9.50;8.90;;;29.00;1.00;;;;;;4988222;28;20418;-61
2023/06/18 12:30:06;;;;;;;10.17;9.27;;;29.10;1.00;;;;;;4988227;28;20426;-62
2023/06/18 12:32:33;;;;;;;10.00;9.17;;;29.40;1.00;;;;;;4987666;28;20488;-61
2023/06/18 12:35:13;;;;;;;10.07;9.37;;;29.40;1.00;;;;;;4988333;28;20449;-61
2023/06/18 12:37:41;;;;;;;10.20;9.50;;;29.50;1.00;;;;;;4988093;28;20417;-62